sensor_id;sensor_type;location;lat;lon;timestamp;temperature;humidity
7254;DHT22;4060;49.186;9.226;2022-12-18T00:01:45;-0.40;55.50
7254;DHT22;4060;49.186;9.226;2022-12-18T00:04:21;-0.40;55.50
7254;DHT22;4060;49.186;9.226;2022-12-18T00:06:51;-0.40;55.50
7254;DHT22;4060;49.186;9.226;2022-12-18T00:09:21;-0.40;55.50
7254;DHT22;4060;49.186;9.226;2022-12-18T00:11:51;-0.40;55.50
7254;DHT22;4060;49.186;9.226;2022-12-18T00:14:21;-0.40;55.50
7254;DHT22;4060;49.186;9.226;2022-12-18T00:16:50;-0.40;55.50
7254;DHT22;4060;49.186;9.226;2022-12-18T00:19:22;-0.40;55.50
7254;DHT22;4060;49.186;9.226;2022-12-18T00:21:51;-0.40;55.50
7254;DHT22;4060;49.186;9.226;2022-12-18T00:24:21;-0.40;55.50
7254;DHT22;4060;49.186;9.226;2022-12-18T00:26:50;-0.50;55.40
7254;DHT22;4060;49.186;9.226;2022-12-18T00:29:20;-0.50;55.40
7254;DHT22;4060;49.186;9.226;2022-12-18T00:31:50;-0.50;55.40
7254;DHT22;4060;49.186;9.226;2022-12-18T00:34:22;-0.50;55.40
7254;DHT22;4060;49.186;9.226;2022-12-18T00:36:51;-0.50;55.40
7254;DHT22;4060;49.186;9.226;2022-12-18T00:39:21;-0.50;55.40
7254;DHT22;4060;49.186;9.226;2022-12-18T00:41:50;-0.50;55.40
7254;DHT22;4060;49.186;9.226;2022-12-18T00:44:36;-0.50;55.40
7254;DHT22;4060;49.186;9.226;2022-12-18T00:47:06;-0.50;55.50
7254;DHT22;4060;49.186;9.226;2022-12-18T00:49:38;-0.50;55.40
7254;DHT22;4060;49.186;9.226;2022-12-18T00:52:08;-0.50;55.40
7254;DHT22;4060;49.186;9.226;2022-12-18T00:54:38;-0.50;55.50
7254;DHT22;4060;49.186;9.226;2022-12-18T00:57:08;-0.50;55.50
7254;DHT22;4060;49.186;9.226;2022-12-18T00:59:38;-0.50;55.50
7254;DHT22;4060;49.186;9.226;2022-12-18T01:02:07;-0.50;55.50
7254;DHT22;4060;49.186;9.226;2022-12-18T01:04:38;-0.50;55.40
7254;DHT22;4060;49.186;9.226;2022-12-18T01:07:08;-0.50;55.40
7254;DHT22;4060;49.186;9.226;2022-12-18T01:09:38;-0.50;55.40
7254;DHT22;4060;49.186;9.226;2022-12-18T01:12:07;-0.50;55.40
7254;DHT22;4060;49.186;9.226;2022-12-18T01:14:37;-0.60;55.30
7254;DHT22;4060;49.186;9.226;2022-12-18T01:17:06;-0.50;55.40
7254;DHT22;4060;49.186;9.226;2022-12-18T01:19:39;-0.60;55.30
7254;DHT22;4060;49.186;9.226;2022-12-18T01:22:08;-0.60;55.30
7254;DHT22;4060;49.186;9.226;2022-12-18T01:24:38;-0.60;55.30
7254;DHT22;4060;49.186;9.226;2022-12-18T01:27:07;-0.60;55.30
7254;DHT22;4060;49.186;9.226;2022-12-18T01:29:37;-0.60;55.30
7254;DHT22;4060;49.186;9.226;2022-12-18T01:32:06;-0.60;55.30
7254;DHT22;4060;49.186;9.226;2022-12-18T01:34:38;-0.60;55.30
7254;DHT22;4060;49.186;9.226;2022-12-18T01:37:08;-0.60;55.30
7254;DHT22;4060;49.186;9.226;2022-12-18T01:39:37;-0.60;55.30
7254;DHT22;4060;49.186;9.226;2022-12-18T01:42:12;-0.60;55.30
7254;DHT22;4060;49.186;9.226;2022-12-18T01:45:00;-0.60;55.30
7254;DHT22;4060;49.186;9.226;2022-12-18T01:47:34;-0.60;55.30
7254;DHT22;4060;49.186;9.226;2022-12-18T01:50:15;-0.60;55.30
7254;DHT22;4060;49.186;9.226;2022-12-18T01:52:49;-0.60;55.30
7254;DHT22;4060;49.186;9.226;2022-12-18T01:55:20;-0.60;55.30
7254;DHT22;4060;49.186;9.226;2022-12-18T01:57:53;-0.60;55.30
7254;DHT22;4060;49.186;9.226;2022-12-18T02:00:23;-0.60;55.30
7254;DHT22;4060;49.186;9.226;2022-12-18T02:02:54;-0.60;55.30
7254;DHT22;4060;49.186;9.226;2022-12-18T02:05:36;-0.60;55.30
7254;DHT22;4060;49.186;9.226;2022-12-18T02:08:12;-0.70;55.30
7254;DHT22;4060;49.186;9.226;2022-12-18T02:10:50;-0.70;55.20
7254;DHT22;4060;49.186;9.226;2022-12-18T02:13:29;-0.70;55.20
7254;DHT22;4060;49.186;9.226;2022-12-18T02:16:04;-0.70;55.30
7254;DHT22;4060;49.186;9.226;2022-12-18T02:18:36;-0.70;55.20
7254;DHT22;4060;49.186;9.226;2022-12-18T02:21:15;-0.70;55.20
7254;DHT22;4060;49.186;9.226;2022-12-18T02:23:56;-0.70;55.20
7254;DHT22;4060;49.186;9.226;2022-12-18T02:26:35;-0.70;55.30
7254;DHT22;4060;49.186;9.226;2022-12-18T02:29:08;-0.70;55.30
7254;DHT22;4060;49.186;9.226;2022-12-18T02:31:42;-0.70;55.20
7254;DHT22;4060;49.186;9.226;2022-12-18T02:34:14;-0.70;55.20
7254;DHT22;4060;49.186;9.226;2022-12-18T02:36:45;-0.70;55.20
7254;DHT22;4060;49.186;9.226;2022-12-18T02:39:16;-0.70;55.30
7254;DHT22;4060;49.186;9.226;2022-12-18T02:41:48;-0.70;55.30
7254;DHT22;4060;49.186;9.226;2022-12-18T02:44:18;-0.70;55.30
7254;DHT22;4060;49.186;9.226;2022-12-18T02:46:50;-0.80;55.20
7254;DHT22;4060;49.186;9.226;2022-12-18T02:49:27;-0.80;55.20
7254;DHT22;4060;49.186;9.226;2022-12-18T02:52:05;-0.70;55.20
7254;DHT22;4060;49.186;9.226;2022-12-18T02:54:51;-0.80;55.20
7254;DHT22;4060;49.186;9.226;2022-12-18T02:57:28;-0.80;55.20
7254;DHT22;4060;49.186;9.226;2022-12-18T03:00:04;-0.80;55.10
7254;DHT22;4060;49.186;9.226;2022-12-18T03:02:39;-0.80;55.20
7254;DHT22;4060;49.186;9.226;2022-12-18T03:05:16;-0.80;55.20
7254;DHT22;4060;49.186;9.226;2022-12-18T03:07:52;-0.80;55.20
7254;DHT22;4060;49.186;9.226;2022-12-18T03:10:26;-0.80;55.20
7254;DHT22;4060;49.186;9.226;2022-12-18T03:13:04;-0.80;55.20
7254;DHT22;4060;49.186;9.226;2022-12-18T03:15:37;-0.80;55.20
7254;DHT22;4060;49.186;9.226;2022-12-18T03:18:12;-0.80;55.20
7254;DHT22;4060;49.186;9.226;2022-12-18T03:20:44;-0.80;55.20
7254;DHT22;4060;49.186;9.226;2022-12-18T03:23:18;-0.80;55.20
7254;DHT22;4060;49.186;9.226;2022-12-18T03:25:51;-0.80;55.20
7254;DHT22;4060;49.186;9.226;2022-12-18T03:28:24;-0.80;55.20
7254;DHT22;4060;49.186;9.226;2022-12-18T03:30:57;-0.80;55.20
7254;DHT22;4060;49.186;9.226;2022-12-18T03:33:34;-0.80;55.20
7254;DHT22;4060;49.186;9.226;2022-12-18T03:36:07;-0.80;55.20
7254;DHT22;4060;49.186;9.226;2022-12-18T03:38:37;-0.80;55.20
7254;DHT22;4060;49.186;9.226;2022-12-18T03:41:15;-0.80;55.20
7254;DHT22;4060;49.186;9.226;2022-12-18T03:43:51;-0.80;55.20
7254;DHT22;4060;49.186;9.226;2022-12-18T03:46:26;-0.80;55.20
7254;DHT22;4060;49.186;9.226;2022-12-18T03:49:01;-0.80;55.30
7254;DHT22;4060;49.186;9.226;2022-12-18T03:51:40;-0.80;55.20
7254;DHT22;4060;49.186;9.226;2022-12-18T03:54:11;-0.80;55.20
7254;DHT22;4060;49.186;9.226;2022-12-18T03:56:45;-0.90;55.10
7254;DHT22;4060;49.186;9.226;2022-12-18T03:59:19;-0.90;55.10
7254;DHT22;4060;49.186;9.226;2022-12-18T04:01:51;-0.90;55.10
7254;DHT22;4060;49.186;9.226;2022-12-18T04:04:22;-0.90;55.10
7254;DHT22;4060;49.186;9.226;2022-12-18T04:06:52;-0.90;55.10
7254;DHT22;4060;49.186;9.226;2022-12-18T04:09:23;-0.90;55.10
7254;DHT22;4060;49.186;9.226;2022-12-18T04:11:53;-0.90;55.10
7254;DHT22;4060;49.186;9.226;2022-12-18T04:14:26;-0.90;55.10
7254;DHT22;4060;49.186;9.226;2022-12-18T04:16:55;-0.90;55.10
7254;DHT22;4060;49.186;9.226;2022-12-18T04:19:24;-0.90;55.10
7254;DHT22;4060;49.186;9.226;2022-12-18T04:21:53;-0.90;55.10
7254;DHT22;4060;49.186;9.226;2022-12-18T04:24:22;-0.90;55.10
7254;DHT22;4060;49.186;9.226;2022-12-18T04:26:52;-0.90;55.10
7254;DHT22;4060;49.186;9.226;2022-12-18T04:29:24;-0.90;55.10
7254;DHT22;4060;49.186;9.226;2022-12-18T04:31:53;-0.90;55.10
7254;DHT22;4060;49.186;9.226;2022-12-18T04:34:23;-0.90;55.10
7254;DHT22;4060;49.186;9.226;2022-12-18T04:36:52;-0.90;55.00
7254;DHT22;4060;49.186;9.226;2022-12-18T04:39:24;-0.90;55.00
7254;DHT22;4060;49.186;9.226;2022-12-18T04:41:54;-0.90;55.00
7254;DHT22;4060;49.186;9.226;2022-12-18T04:44:30;-1.00;55.00
7254;DHT22;4060;49.186;9.226;2022-12-18T04:47:00;-1.00;55.00
7254;DHT22;4060;49.186;9.226;2022-12-18T04:49:29;-1.00;55.00
7254;DHT22;4060;49.186;9.226;2022-12-18T04:51:58;-1.00;55.00
7254;DHT22;4060;49.186;9.226;2022-12-18T04:54:28;-1.00;55.00
7254;DHT22;4060;49.186;9.226;2022-12-18T04:56:57;-1.00;55.00
7254;DHT22;4060;49.186;9.226;2022-12-18T04:59:27;-1.00;55.00
7254;DHT22;4060;49.186;9.226;2022-12-18T05:01:59;-1.00;54.90
7254;DHT22;4060;49.186;9.226;2022-12-18T05:04:28;-1.00;54.90
7254;DHT22;4060;49.186;9.226;2022-12-18T05:06:58;-1.00;54.90
7254;DHT22;4060;49.186;9.226;2022-12-18T05:09:28;-1.00;55.00
7254;DHT22;4060;49.186;9.226;2022-12-18T05:11:57;-1.00;55.00
7254;DHT22;4060;49.186;9.226;2022-12-18T05:14:27;-1.00;54.90
7254;DHT22;4060;49.186;9.226;2022-12-18T05:16:58;-1.00;54.90
7254;DHT22;4060;49.186;9.226;2022-12-18T05:19:27;-1.00;55.00
7254;DHT22;4060;49.186;9.226;2022-12-18T05:21:57;-1.00;54.90
7254;DHT22;4060;49.186;9.226;2022-12-18T05:24:27;-1.00;55.00
7254;DHT22;4060;49.186;9.226;2022-12-18T05:26:57;-1.00;54.90
7254;DHT22;4060;49.186;9.226;2022-12-18T05:29:28;-1.10;54.90
7254;DHT22;4060;49.186;9.226;2022-12-18T05:31:59;-1.00;54.90
7254;DHT22;4060;49.186;9.226;2022-12-18T05:34:29;-1.10;54.90
7254;DHT22;4060;49.186;9.226;2022-12-18T05:36:58;-1.10;54.80
7254;DHT22;4060;49.186;9.226;2022-12-18T05:39:27;-1.10;54.80
7254;DHT22;4060;49.186;9.226;2022-12-18T05:41:56;-1.10;55.30
7254;DHT22;4060;49.186;9.226;2022-12-18T05:44:26;-1.10;54.80
7254;DHT22;4060;49.186;9.226;2022-12-18T05:46:55;-1.10;54.90
7254;DHT22;4060;49.186;9.226;2022-12-18T05:49:26;-1.10;54.80
7254;DHT22;4060;49.186;9.226;2022-12-18T05:51:57;-1.10;55.10
7254;DHT22;4060;49.186;9.226;2022-12-18T05:54:28;-1.10;54.90
7254;DHT22;4060;49.186;9.226;2022-12-18T05:56:58;-1.10;54.80
7254;DHT22;4060;49.186;9.226;2022-12-18T05:59:28;-1.10;54.80
7254;DHT22;4060;49.186;9.226;2022-12-18T06:01:58;-1.10;55.30
7254;DHT22;4060;49.186;9.226;2022-12-18T06:04:29;-1.10;54.80
7254;DHT22;4060;49.186;9.226;2022-12-18T06:06:59;-1.10;54.80
7254;DHT22;4060;49.186;9.226;2022-12-18T06:09:36;-1.10;54.80
7254;DHT22;4060;49.186;9.226;2022-12-18T06:12:07;-1.10;54.80
7254;DHT22;4060;49.186;9.226;2022-12-18T06:14:37;-1.20;54.70
7254;DHT22;4060;49.186;9.226;2022-12-18T06:17:06;-1.20;54.70
7254;DHT22;4060;49.186;9.226;2022-12-18T06:19:37;-1.20;54.70
7254;DHT22;4060;49.186;9.226;2022-12-18T06:22:07;-1.20;54.70
7254;DHT22;4060;49.186;9.226;2022-12-18T06:24:38;-1.20;54.70
7254;DHT22;4060;49.186;9.226;2022-12-18T06:27:08;-1.20;54.70
7254;DHT22;4060;49.186;9.226;2022-12-18T06:29:38;-1.20;54.70
7254;DHT22;4060;49.186;9.226;2022-12-18T06:32:08;-1.20;54.70
7254;DHT22;4060;49.186;9.226;2022-12-18T06:34:40;-1.20;54.70
7254;DHT22;4060;49.186;9.226;2022-12-18T06:37:10;-1.20;54.80
7254;DHT22;4060;49.186;9.226;2022-12-18T06:39:40;-1.20;54.70
7254;DHT22;4060;49.186;9.226;2022-12-18T06:42:10;-1.20;54.70
7254;DHT22;4060;49.186;9.226;2022-12-18T06:44:39;-1.20;54.70
7254;DHT22;4060;49.186;9.226;2022-12-18T06:47:09;-1.20;54.70
7254;DHT22;4060;49.186;9.226;2022-12-18T06:49:40;-1.20;54.70
7254;DHT22;4060;49.186;9.226;2022-12-18T06:52:11;-1.20;54.70
7254;DHT22;4060;49.186;9.226;2022-12-18T06:54:41;-1.20;54.80
7254;DHT22;4060;49.186;9.226;2022-12-18T06:57:11;-1.20;54.70
7254;DHT22;4060;49.186;9.226;2022-12-18T06:59:40;-1.20;54.70
7254;DHT22;4060;49.186;9.226;2022-12-18T07:02:12;-1.30;54.70
7254;DHT22;4060;49.186;9.226;2022-12-18T07:04:43;-1.30;54.70
7254;DHT22;4060;49.186;9.226;2022-12-18T07:07:12;-1.30;54.70
7254;DHT22;4060;49.186;9.226;2022-12-18T07:09:41;-1.30;54.70
7254;DHT22;4060;49.186;9.226;2022-12-18T07:12:10;-1.30;54.70
7254;DHT22;4060;49.186;9.226;2022-12-18T07:14:40;-1.30;54.70
7254;DHT22;4060;49.186;9.226;2022-12-18T07:17:09;-1.30;54.70
7254;DHT22;4060;49.186;9.226;2022-12-18T07:19:39;-1.30;54.70
7254;DHT22;4060;49.186;9.226;2022-12-18T07:22:10;-1.30;54.70
7254;DHT22;4060;49.186;9.226;2022-12-18T07:24:39;-1.30;54.70
7254;DHT22;4060;49.186;9.226;2022-12-18T07:27:09;-1.30;54.70
7254;DHT22;4060;49.186;9.226;2022-12-18T07:29:38;-1.30;54.70
7254;DHT22;4060;49.186;9.226;2022-12-18T07:32:08;-1.30;54.70
7254;DHT22;4060;49.186;9.226;2022-12-18T07:34:38;-1.30;54.70
7254;DHT22;4060;49.186;9.226;2022-12-18T07:37:09;-1.30;54.70
7254;DHT22;4060;49.186;9.226;2022-12-18T07:39:41;-1.30;54.70
7254;DHT22;4060;49.186;9.226;2022-12-18T07:42:11;-1.30;54.70
7254;DHT22;4060;49.186;9.226;2022-12-18T07:44:57;-1.30;54.70
7254;DHT22;4060;49.186;9.226;2022-12-18T07:47:28;-1.30;54.70
7254;DHT22;4060;49.186;9.226;2022-12-18T07:49:57;-1.30;54.70
7254;DHT22;4060;49.186;9.226;2022-12-18T07:52:30;-1.30;54.70
7254;DHT22;4060;49.186;9.226;2022-12-18T07:54:59;-1.30;54.80
7254;DHT22;4060;49.186;9.226;2022-12-18T07:57:29;-1.30;54.70
7254;DHT22;4060;49.186;9.226;2022-12-18T07:59:58;-1.30;54.70
7254;DHT22;4060;49.186;9.226;2022-12-18T08:02:30;-1.40;54.70
7254;DHT22;4060;49.186;9.226;2022-12-18T08:05:00;-1.40;54.70
7254;DHT22;4060;49.186;9.226;2022-12-18T08:07:31;-1.40;54.70
7254;DHT22;4060;49.186;9.226;2022-12-18T08:10:01;-1.40;54.70
7254;DHT22;4060;49.186;9.226;2022-12-18T08:12:30;-1.40;54.70
7254;DHT22;4060;49.186;9.226;2022-12-18T08:15:00;-1.40;54.70
7254;DHT22;4060;49.186;9.226;2022-12-18T08:17:29;-1.40;54.70
7254;DHT22;4060;49.186;9.226;2022-12-18T08:19:58;-1.40;54.70
7254;DHT22;4060;49.186;9.226;2022-12-18T08:22:28;-1.40;54.80
7254;DHT22;4060;49.186;9.226;2022-12-18T08:24:59;-1.40;54.80
7254;DHT22;4060;49.186;9.226;2022-12-18T08:27:29;-1.40;54.80
7254;DHT22;4060;49.186;9.226;2022-12-18T08:29:58;-1.40;54.80
7254;DHT22;4060;49.186;9.226;2022-12-18T08:32:27;-1.40;54.90
7254;DHT22;4060;49.186;9.226;2022-12-18T08:34:57;-1.40;54.90
7254;DHT22;4060;49.186;9.226;2022-12-18T08:37:26;-1.40;54.90
7254;DHT22;4060;49.186;9.226;2022-12-18T08:39:56;-1.40;54.90
7254;DHT22;4060;49.186;9.226;2022-12-18T08:42:27;-1.40;54.90
7254;DHT22;4060;49.186;9.226;2022-12-18T08:45:12;-1.40;54.90
7254;DHT22;4060;49.186;9.226;2022-12-18T08:47:42;-1.30;55.00
7254;DHT22;4060;49.186;9.226;2022-12-18T08:50:12;-1.30;55.00
7254;DHT22;4060;49.186;9.226;2022-12-18T08:52:41;-1.30;55.10
7254;DHT22;4060;49.186;9.226;2022-12-18T08:55:11;-1.30;55.00
7254;DHT22;4060;49.186;9.226;2022-12-18T08:57:42;-1.30;55.00
7254;DHT22;4060;49.186;9.226;2022-12-18T09:00:13;-1.30;55.10
7254;DHT22;4060;49.186;9.226;2022-12-18T09:02:42;-1.30;55.20
7254;DHT22;4060;49.186;9.226;2022-12-18T09:05:12;-1.30;55.10
7254;DHT22;4060;49.186;9.226;2022-12-18T09:07:41;-1.30;55.20
7254;DHT22;4060;49.186;9.226;2022-12-18T09:10:11;-1.30;55.20
7254;DHT22;4060;49.186;9.226;2022-12-18T09:12:42;-1.30;55.20
7254;DHT22;4060;49.186;9.226;2022-12-18T09:15:11;-1.30;55.20
7254;DHT22;4060;49.186;9.226;2022-12-18T09:17:42;-1.30;55.30
7254;DHT22;4060;49.186;9.226;2022-12-18T09:20:14;-1.30;55.30
7254;DHT22;4060;49.186;9.226;2022-12-18T09:22:43;-1.30;55.30
7254;DHT22;4060;49.186;9.226;2022-12-18T09:25:13;-1.30;55.30
7254;DHT22;4060;49.186;9.226;2022-12-18T09:27:47;-1.20;55.40
7254;DHT22;4060;49.186;9.226;2022-12-18T09:30:17;-1.20;55.40
7254;DHT22;4060;49.186;9.226;2022-12-18T09:32:47;-1.20;55.50
7254;DHT22;4060;49.186;9.226;2022-12-18T09:35:16;-1.20;55.50
7254;DHT22;4060;49.186;9.226;2022-12-18T09:37:45;-1.20;55.50
7254;DHT22;4060;49.186;9.226;2022-12-18T09:40:15;-1.20;55.50
7254;DHT22;4060;49.186;9.226;2022-12-18T09:42:54;-1.20;55.60
7254;DHT22;4060;49.186;9.226;2022-12-18T09:45:26;-1.20;55.50
7254;DHT22;4060;49.186;9.226;2022-12-18T09:47:56;-1.20;55.60
7254;DHT22;4060;49.186;9.226;2022-12-18T09:50:31;-1.10;55.70
7254;DHT22;4060;49.186;9.226;2022-12-18T09:53:05;-1.10;55.80
7254;DHT22;4060;49.186;9.226;2022-12-18T09:55:36;-1.10;55.80
7254;DHT22;4060;49.186;9.226;2022-12-18T09:58:16;-1.10;55.80
7254;DHT22;4060;49.186;9.226;2022-12-18T10:00:48;-1.10;55.80
7254;DHT22;4060;49.186;9.226;2022-12-18T10:03:21;-1.10;55.80
7254;DHT22;4060;49.186;9.226;2022-12-18T10:05:58;-1.10;55.80
7254;DHT22;4060;49.186;9.226;2022-12-18T10:08:37;-1.10;55.90
7254;DHT22;4060;49.186;9.226;2022-12-18T10:11:32;-1.00;56.00
7254;DHT22;4060;49.186;9.226;2022-12-18T10:14:09;-1.00;56.00
7254;DHT22;4060;49.186;9.226;2022-12-18T10:16:57;-1.00;56.10
7254;DHT22;4060;49.186;9.226;2022-12-18T10:19:40;-1.00;56.10
7254;DHT22;4060;49.186;9.226;2022-12-18T10:22:29;-1.00;56.10
7254;DHT22;4060;49.186;9.226;2022-12-18T10:25:05;-1.00;56.10
7254;DHT22;4060;49.186;9.226;2022-12-18T10:27:42;-1.00;56.20
7254;DHT22;4060;49.186;9.226;2022-12-18T10:30:16;-1.00;56.20
7254;DHT22;4060;49.186;9.226;2022-12-18T10:32:46;-1.00;56.30
7254;DHT22;4060;49.186;9.226;2022-12-18T10:35:19;-0.90;56.40
7254;DHT22;4060;49.186;9.226;2022-12-18T10:38:04;-0.90;56.50
7254;DHT22;4060;49.186;9.226;2022-12-18T10:40:49;-0.90;56.50
7254;DHT22;4060;49.186;9.226;2022-12-18T10:43:22;-0.90;56.50
7254;DHT22;4060;49.186;9.226;2022-12-18T10:46:12;-0.90;57.10
7254;DHT22;4060;49.186;9.226;2022-12-18T10:48:54;-0.90;56.60
7254;DHT22;4060;49.186;9.226;2022-12-18T10:51:25;-0.80;56.70
7254;DHT22;4060;49.186;9.226;2022-12-18T10:53:57;-0.90;57.20
7254;DHT22;4060;49.186;9.226;2022-12-18T10:56:28;-0.80;56.80
7254;DHT22;4060;49.186;9.226;2022-12-18T10:59:01;-0.80;56.80
7254;DHT22;4060;49.186;9.226;2022-12-18T11:01:50;-0.80;57.00
7254;DHT22;4060;49.186;9.226;2022-12-18T11:04:22;-0.80;57.70
7254;DHT22;4060;49.186;9.226;2022-12-18T11:06:59;-0.70;57.30
7254;DHT22;4060;49.186;9.226;2022-12-18T11:09:32;-0.70;57.40
7254;DHT22;4060;49.186;9.226;2022-12-18T11:12:04;-0.70;57.60
7254;DHT22;4060;49.186;9.226;2022-12-18T11:14:43;-0.70;57.60
7254;DHT22;4060;49.186;9.226;2022-12-18T11:17:22;-0.60;57.80
7254;DHT22;4060;49.186;9.226;2022-12-18T11:19:54;-0.60;57.70
7254;DHT22;4060;49.186;9.226;2022-12-18T11:22:27;-0.60;57.70
7254;DHT22;4060;49.186;9.226;2022-12-18T11:24:59;-0.60;57.70
7254;DHT22;4060;49.186;9.226;2022-12-18T11:27:30;-0.60;57.70
7254;DHT22;4060;49.186;9.226;2022-12-18T11:30:09;-0.60;57.80
7254;DHT22;4060;49.186;9.226;2022-12-18T11:32:42;-0.60;57.80
7254;DHT22;4060;49.186;9.226;2022-12-18T11:35:17;-0.60;57.80
7254;DHT22;4060;49.186;9.226;2022-12-18T11:37:52;-0.50;57.90
7254;DHT22;4060;49.186;9.226;2022-12-18T11:40:35;-0.50;58.00
7254;DHT22;4060;49.186;9.226;2022-12-18T11:43:13;-0.50;58.00
7254;DHT22;4060;49.186;9.226;2022-12-18T11:45:49;-0.50;58.00
7254;DHT22;4060;49.186;9.226;2022-12-18T11:48:25;-0.50;58.00
7254;DHT22;4060;49.186;9.226;2022-12-18T11:50:56;-0.40;58.10
7254;DHT22;4060;49.186;9.226;2022-12-18T11:53:27;-0.40;58.10
7254;DHT22;4060;49.186;9.226;2022-12-18T11:56:08;-0.40;58.10
7254;DHT22;4060;49.186;9.226;2022-12-18T11:58:47;-0.40;58.10
7254;DHT22;4060;49.186;9.226;2022-12-18T12:01:34;-0.30;58.20
7254;DHT22;4060;49.186;9.226;2022-12-18T12:04:26;-0.30;58.30
7254;DHT22;4060;49.186;9.226;2022-12-18T12:07:03;-0.30;58.20
7254;DHT22;4060;49.186;9.226;2022-12-18T12:09:49;-0.30;58.20
7254;DHT22;4060;49.186;9.226;2022-12-18T12:12:31;-0.30;58.20
7254;DHT22;4060;49.186;9.226;2022-12-18T12:15:23;-0.30;58.30
7254;DHT22;4060;49.186;9.226;2022-12-18T12:17:58;-0.30;58.30
7254;DHT22;4060;49.186;9.226;2022-12-18T12:20:49;-0.30;58.30
7254;DHT22;4060;49.186;9.226;2022-12-18T12:23:30;-0.20;58.30
7254;DHT22;4060;49.186;9.226;2022-12-18T12:26:08;-0.20;58.30
7254;DHT22;4060;49.186;9.226;2022-12-18T12:28:58;-0.20;58.40
7254;DHT22;4060;49.186;9.226;2022-12-18T12:31:44;-0.20;58.50
7254;DHT22;4060;49.186;9.226;2022-12-18T12:34:21;-0.20;58.80
7254;DHT22;4060;49.186;9.226;2022-12-18T12:37:08;-0.10;58.50
7254;DHT22;4060;49.186;9.226;2022-12-18T12:39:43;-0.10;58.50
7254;DHT22;4060;49.186;9.226;2022-12-18T12:42:18;-0.10;58.40
7254;DHT22;4060;49.186;9.226;2022-12-18T12:45:13;-0.10;58.50
7254;DHT22;4060;49.186;9.226;2022-12-18T12:47:46;-0.10;58.50
7254;DHT22;4060;49.186;9.226;2022-12-18T12:50:19;-0.10;58.50
7254;DHT22;4060;49.186;9.226;2022-12-18T12:52:54;0.00;58.50
7254;DHT22;4060;49.186;9.226;2022-12-18T12:55:27;0.00;58.50
7254;DHT22;4060;49.186;9.226;2022-12-18T12:58:02;0.00;58.50
7254;DHT22;4060;49.186;9.226;2022-12-18T13:00:41;0.00;58.50
7254;DHT22;4060;49.186;9.226;2022-12-18T13:03:21;0.00;58.50
7254;DHT22;4060;49.186;9.226;2022-12-18T13:05:56;0.10;58.60
7254;DHT22;4060;49.186;9.226;2022-12-18T13:08:55;0.10;58.60
7254;DHT22;4060;49.186;9.226;2022-12-18T13:11:36;0.10;58.60
7254;DHT22;4060;49.186;9.226;2022-12-18T13:14:25;0.10;58.60
7254;DHT22;4060;49.186;9.226;2022-12-18T13:20:13;0.10;58.60
7254;DHT22;4060;49.186;9.226;2022-12-18T13:22:44;0.10;58.60
7254;DHT22;4060;49.186;9.226;2022-12-18T13:25:34;0.10;58.60
7254;DHT22;4060;49.186;9.226;2022-12-18T13:28:12;0.20;58.70
7254;DHT22;4060;49.186;9.226;2022-12-18T13:30:53;0.20;58.70
7254;DHT22;4060;49.186;9.226;2022-12-18T13:33:39;0.20;58.70
7254;DHT22;4060;49.186;9.226;2022-12-18T13:45:39;0.20;58.70
7254;DHT22;4060;49.186;9.226;2022-12-18T13:48:25;0.20;58.80
7254;DHT22;4060;49.186;9.226;2022-12-18T13:51:02;0.20;58.70
7254;DHT22;4060;49.186;9.226;2022-12-18T13:53:36;0.30;58.90
7254;DHT22;4060;49.186;9.226;2022-12-18T13:56:06;0.30;58.80
7254;DHT22;4060;49.186;9.226;2022-12-18T13:58:38;0.30;58.90
7254;DHT22;4060;49.186;9.226;2022-12-18T14:01:22;0.30;59.20
7254;DHT22;4060;49.186;9.226;2022-12-18T14:04:10;0.30;58.90
7254;DHT22;4060;49.186;9.226;2022-12-18T14:06:40;0.40;58.90
7254;DHT22;4060;49.186;9.226;2022-12-18T14:09:14;0.40;58.90
7254;DHT22;4060;49.186;9.226;2022-12-18T14:11:48;0.40;58.90
7254;DHT22;4060;49.186;9.226;2022-12-18T14:14:18;0.40;58.90
7254;DHT22;4060;49.186;9.226;2022-12-18T14:16:51;0.30;58.80
7254;DHT22;4060;49.186;9.226;2022-12-18T14:19:22;0.40;58.90
7254;DHT22;4060;49.186;9.226;2022-12-18T14:21:53;0.40;58.90
7254;DHT22;4060;49.186;9.226;2022-12-18T14:24:22;0.40;58.90
7254;DHT22;4060;49.186;9.226;2022-12-18T14:26:52;0.40;58.90
7254;DHT22;4060;49.186;9.226;2022-12-18T14:29:24;0.40;58.90
7254;DHT22;4060;49.186;9.226;2022-12-18T14:32:11;0.40;58.90
7254;DHT22;4060;49.186;9.226;2022-12-18T14:34:43;0.40;58.90
7254;DHT22;4060;49.186;9.226;2022-12-18T14:37:15;0.40;58.90
7254;DHT22;4060;49.186;9.226;2022-12-18T14:39:54;0.40;58.90
7254;DHT22;4060;49.186;9.226;2022-12-18T14:42:25;0.50;59.00
7254;DHT22;4060;49.186;9.226;2022-12-18T14:48:07;0.50;59.00
7254;DHT22;4060;49.186;9.226;2022-12-18T14:50:37;0.50;59.00
7254;DHT22;4060;49.186;9.226;2022-12-18T14:53:21;0.50;58.90
7254;DHT22;4060;49.186;9.226;2022-12-18T14:55:52;0.50;59.00
7254;DHT22;4060;49.186;9.226;2022-12-18T14:58:22;0.50;59.00
7254;DHT22;4060;49.186;9.226;2022-12-18T15:00:52;0.50;59.00
7254;DHT22;4060;49.186;9.226;2022-12-18T15:03:23;0.50;59.00
7254;DHT22;4060;49.186;9.226;2022-12-18T15:05:53;0.50;59.00
7254;DHT22;4060;49.186;9.226;2022-12-18T15:08:31;0.50;59.00
7254;DHT22;4060;49.186;9.226;2022-12-18T15:13:48;0.50;59.00
7254;DHT22;4060;49.186;9.226;2022-12-18T15:16:23;0.60;59.00
7254;DHT22;4060;49.186;9.226;2022-12-18T15:18:55;0.50;59.00
7254;DHT22;4060;49.186;9.226;2022-12-18T15:21:25;0.60;59.10
7254;DHT22;4060;49.186;9.226;2022-12-18T15:24:01;0.60;59.10
7254;DHT22;4060;49.186;9.226;2022-12-18T15:26:38;0.50;59.00
7254;DHT22;4060;49.186;9.226;2022-12-18T15:29:21;0.60;59.10
7254;DHT22;4060;49.186;9.226;2022-12-18T15:32:04;0.60;59.10
7254;DHT22;4060;49.186;9.226;2022-12-18T15:34:35;0.60;59.10
7254;DHT22;4060;49.186;9.226;2022-12-18T15:37:06;0.60;59.20
7254;DHT22;4060;49.186;9.226;2022-12-18T15:39:36;0.60;59.10
7254;DHT22;4060;49.186;9.226;2022-12-18T15:42:09;0.60;59.10
7254;DHT22;4060;49.186;9.226;2022-12-18T15:44:56;0.60;59.10
7254;DHT22;4060;49.186;9.226;2022-12-18T15:47:25;0.60;59.10
7254;DHT22;4060;49.186;9.226;2022-12-18T15:49:56;0.60;59.10
7254;DHT22;4060;49.186;9.226;2022-12-18T15:52:26;0.60;59.20
7254;DHT22;4060;49.186;9.226;2022-12-18T15:54:55;0.60;59.20
7254;DHT22;4060;49.186;9.226;2022-12-18T15:57:41;0.60;59.20
7254;DHT22;4060;49.186;9.226;2022-12-18T16:00:13;0.60;59.20
7254;DHT22;4060;49.186;9.226;2022-12-18T16:02:42;0.60;59.20
7254;DHT22;4060;49.186;9.226;2022-12-18T16:05:16;0.60;59.20
7254;DHT22;4060;49.186;9.226;2022-12-18T16:07:46;0.60;59.20
7254;DHT22;4060;49.186;9.226;2022-12-18T16:10:16;0.60;59.20
7254;DHT22;4060;49.186;9.226;2022-12-18T16:12:45;0.60;59.20
7254;DHT22;4060;49.186;9.226;2022-12-18T16:15:15;0.60;59.20
7254;DHT22;4060;49.186;9.226;2022-12-18T16:17:45;0.60;59.20
7254;DHT22;4060;49.186;9.226;2022-12-18T16:20:19;0.60;59.20
7254;DHT22;4060;49.186;9.226;2022-12-18T16:22:48;0.60;59.20
7254;DHT22;4060;49.186;9.226;2022-12-18T16:25:29;0.60;59.20
7254;DHT22;4060;49.186;9.226;2022-12-18T16:27:58;0.60;59.20
7254;DHT22;4060;49.186;9.226;2022-12-18T16:30:31;0.60;59.20
7254;DHT22;4060;49.186;9.226;2022-12-18T16:33:00;0.60;59.20
7254;DHT22;4060;49.186;9.226;2022-12-18T16:35:31;0.60;59.20
7254;DHT22;4060;49.186;9.226;2022-12-18T16:38:01;0.60;59.20
7254;DHT22;4060;49.186;9.226;2022-12-18T16:40:32;0.60;59.20
7254;DHT22;4060;49.186;9.226;2022-12-18T16:43:25;0.60;59.20
7254;DHT22;4060;49.186;9.226;2022-12-18T16:45:59;0.60;59.20
7254;DHT22;4060;49.186;9.226;2022-12-18T16:48:28;0.60;59.20
7254;DHT22;4060;49.186;9.226;2022-12-18T16:51:03;0.60;59.20
7254;DHT22;4060;49.186;9.226;2022-12-18T16:53:33;0.60;59.20
7254;DHT22;4060;49.186;9.226;2022-12-18T16:56:03;0.60;59.20
7254;DHT22;4060;49.186;9.226;2022-12-18T16:58:32;0.60;59.30
7254;DHT22;4060;49.186;9.226;2022-12-18T17:01:07;0.60;59.30
7254;DHT22;4060;49.186;9.226;2022-12-18T17:03:36;0.60;59.30